Time;durP1;ratioP1;P1;durP2;ratioP2;P2;SDS_P1;SDS_P2;PMS_P1;PMS_P2;Temp;Humidity;BMP_temperature;BMP_pressure;BME280_temperature;BME280_humidity;BME280_pressure;Samples;Min_cycle;Max_cycle;Signal;HPM_P1;HPM_P2
2023/06/23 00:01:02;;;;;;;5.95;4.30;;;17.90;99.90;;;;;;5012717;28;20029;-35
2023/06/23 00:03:30;;;;;;;7.95;5.35;;;17.80;99.90;;;;;;5013959;28;20474;-38
2023/06/23 00:05:56;;;;;;;8.23;5.30;;;17.80;99.90;;;;;;5013707;28;20064;-34
2023/06/23 00:08:22;;;;;;;9.32;4.80;;;17.80;99.90;;;;;;5013897;28;20042;-36
2023/06/23 00:10:48;;;;;;;9.07;5.72;;;17.80;99.90;;;;;;5013859;28;20025;-35
2023/06/23 00:13:17;;;;;;;11.77;5.55;;;17.80;99.90;;;;;;5013545;28;20060;-34
2023/06/23 00:15:42;;;;;;;11.48;6.10;;;17.70;99.90;;;;;;5013716;28;20032;-35
2023/06/23 00:18:08;;;;;;;9.82;6.40;;;17.80;99.90;;;;;;5013983;28;20029;-41
2023/06/23 00:20:34;;;;;;;9.95;6.10;;;17.70;99.90;;;;;;5013934;28;20084;-34
2023/06/23 00:22:59;;;;;;;10.98;6.10;;;17.70;99.90;;;;;;5013605;28;20156;-38
2023/06/23 00:25:25;;;;;;;10.02;6.35;;;17.60;99.90;;;;;;5013391;28;20034;-33
2023/06/23 00:27:51;;;;;;;11.20;5.93;;;17.70;99.90;;;;;;5014042;28;20018;-37
2023/06/23 00:30:16;;;;;;;12.38;7.15;;;17.60;99.90;;;;;;5013726;28;20022;-34
2023/06/23 00:32:45;;;;;;;9.15;5.90;;;17.60;99.90;;;;;;5013706;28;20030;-39
2023/06/23 00:35:13;;;;;;;6.18;4.80;;;17.60;99.90;;;;;;5013594;28;20566;-37
2023/06/23 00:37:39;;;;;;;8.15;4.97;;;17.50;99.90;;;;;;5013452;28;20030;-33
2023/06/23 00:40:12;;;;;;;9.60;6.30;;;17.60;99.90;;;;;;5013311;28;20026;-34
2023/06/23 00:42:48;;;;;;;8.73;5.03;;;17.50;99.90;;;;;;5014929;28;20044;-32
2023/06/23 00:45:14;;;;;;;8.32;5.22;;;17.50;99.90;;;;;;5012711;28;20165;-33
2023/06/23 00:47:43;;;;;;;9.15;5.68;;;17.50;99.90;;;;;;5013463;28;20065;-34
2023/06/23 00:50:16;;;;;;;8.75;6.25;;;17.40;99.90;;;;;;5013415;28;20025;-35
2023/06/23 00:52:50;;;;;;;9.50;6.25;;;17.30;99.90;;;;;;5013041;28;20113;-34
2023/06/23 00:55:23;;;;;;;10.57;6.60;;;17.30;99.90;;;;;;5013415;28;20026;-36
2023/06/23 00:57:50;;;;;;;12.98;7.50;;;17.30;99.90;;;;;;5013209;28;20044;-32
2023/06/23 01:00:20;;;;;;;11.83;7.80;;;17.30;99.90;;;;;;5013034;28;20057;-35
2023/06/23 01:02:50;;;;;;;13.77;8.70;;;17.30;99.90;;;;;;5012857;28;20272;-34
2023/06/23 01:05:18;;;;;;;13.98;8.70;;;17.30;99.90;;;;;;5012200;28;20112;-32
2023/06/23 01:08:03;;;;;;;13.77;9.00;;;17.20;99.90;;;;;;5012557;28;20026;-35
2023/06/23 01:11:00;;;;;;;11.70;8.75;;;17.20;99.90;;;;;;5013113;28;20030;-35
2023/06/23 01:13:25;;;;;;;15.07;9.77;;;17.20;99.90;;;;;;5012497;28;20060;-30
2023/06/23 01:15:59;;;;;;;16.13;9.35;;;17.20;99.90;;;;;;5012921;28;20026;-35
2023/06/23 01:18:28;;;;;;;12.63;9.10;;;17.20;99.90;;;;;;5012963;28;20487;-33
2023/06/23 01:21:01;;;;;;;16.48;9.85;;;17.20;99.90;;;;;;5012883;28;20061;-33
2023/06/23 01:23:50;;;;;;;14.55;8.70;;;17.10;99.90;;;;;;5013104;28;20030;-36
2023/06/23 01:26:33;;;;;;;15.32;9.63;;;17.00;99.90;;;;;;5012974;28;20502;-31
2023/06/23 01:29:07;;;;;;;17.20;9.63;;;17.10;99.90;;;;;;5012864;28;20026;-36
2023/06/23 01:32:02;;;;;;;16.92;10.57;;;17.10;99.90;;;;;;5012770;28;20383;-33
2023/06/23 01:34:45;;;;;;;17.48;9.70;;;17.10;99.90;;;;;;5012663;28;20097;-35
2023/06/23 01:37:18;;;;;;;17.98;10.18;;;17.10;99.90;;;;;;5012789;28;20025;-32
2023/06/23 01:40:07;;;;;;;17.00;9.75;;;17.10;99.90;;;;;;5012745;28;20030;-32
2023/06/23 01:42:36;;;;;;;15.40;9.93;;;17.10;99.90;;;;;;5012471;28;20030;-33
2023/06/23 01:45:05;;;;;;;14.10;9.45;;;17.10;99.90;;;;;;5012939;28;20149;-33
2023/06/23 01:47:34;;;;;;;17.10;10.85;;;17.10;99.90;;;;;;5027599;28;20025;-35
2023/06/23 01:50:07;;;;;;;19.00;11.88;;;17.10;99.90;;;;;;5012590;28;20033;-33
2023/06/23 01:52:35;;;;;;;15.20;10.48;;;17.00;99.90;;;;;;5012399;28;20014;-31
2023/06/23 01:55:03;;;;;;;16.83;10.98;;;17.10;99.90;;;;;;5012548;28;20084;-31
2023/06/23 01:57:31;;;;;;;24.65;11.10;;;17.10;99.90;;;;;;5014629;28;20025;-31
2023/06/23 01:59:58;;;;;;;14.10;9.13;;;17.00;99.90;;;;;;5016175;28;20054;-34
2023/06/23 02:02:26;;;;;;;21.27;11.13;;;17.10;99.90;;;;;;5016178;28;20041;-34
2023/06/23 02:04:54;;;;;;;17.38;11.48;;;17.10;99.90;;;;;;5016122;28;20018;-37
2023/06/23 02:07:21;;;;;;;16.23;10.52;;;17.00;99.90;;;;;;5016035;28;20088;-33
2023/06/23 02:09:48;;;;;;;19.05;12.27;;;17.00;99.90;;;;;;5016084;28;20112;-32
2023/06/23 02:12:15;;;;;;;23.25;11.32;;;17.00;99.90;;;;;;5015893;28;20502;-35
2023/06/23 02:14:43;;;;;;;23.48;11.40;;;17.00;99.90;;;;;;5015855;28;20053;-32
2023/06/23 02:17:10;;;;;;;23.55;13.10;;;17.10;99.90;;;;;;5015989;28;20105;-34
2023/06/23 02:19:42;;;;;;;24.23;13.65;;;17.00;99.90;;;;;;5014767;28;20022;-43
2023/06/23 02:22:13;;;;;;;33.67;13.77;;;16.90;99.90;;;;;;5015839;28;20034;-54
2023/06/23 02:24:39;;;;;;;23.73;14.35;;;16.90;99.90;;;;;;5015785;28;20473;-33
2023/06/23 02:27:07;;;;;;;31.77;15.82;;;16.80;99.90;;;;;;5015670;28;20160;-34
2023/06/23 02:29:38;;;;;;;27.17;14.98;;;16.90;99.90;;;;;;5015651;28;20372;-33
2023/06/23 02:32:04;;;;;;;27.83;15.10;;;16.80;99.90;;;;;;5015577;28;20383;-34
2023/06/23 02:34:31;;;;;;;33.45;16.88;;;16.80;99.90;;;;;;5015481;28;20022;-31
2023/06/23 02:37:02;;;;;;;30.20;15.65;;;16.90;99.90;;;;;;5015591;28;20026;-31
2023/06/23 02:39:33;;;;;;;29.55;16.00;;;16.90;99.90;;;;;;5015837;28;20406;-31
2023/06/23 02:42:00;;;;;;;24.45;15.30;;;16.90;99.90;;;;;;5015396;28;20026;-38
2023/06/23 02:44:39;;;;;;;30.67;16.33;;;16.90;99.90;;;;;;5015402;28;20025;-39
2023/06/23 02:47:10;;;;;;;30.45;16.00;;;16.90;99.90;;;;;;5015275;28;20022;-31
2023/06/23 02:49:37;;;;;;;27.75;15.38;;;16.90;99.90;;;;;;5015375;28;20026;-30
2023/06/23 02:52:05;;;;;;;29.27;15.68;;;16.80;99.90;;;;;;5015302;28;20105;-37
2023/06/23 02:54:36;;;;;;;25.95;14.38;;;16.80;99.90;;;;;;5015217;28;20058;-32
2023/06/23 02:57:03;;;;;;;34.10;16.02;;;16.70;99.90;;;;;;5013896;28;20030;-35
2023/06/23 02:59:31;;;;;;;34.53;16.23;;;16.80;99.90;;;;;;5015072;28;20041;-34
2023/06/23 03:01:59;;;;;;;29.08;14.70;;;16.80;99.90;;;;;;5014961;28;20080;-33
2023/06/23 03:04:25;;;;;;;28.58;15.90;;;16.80;99.90;;;;;;5015059;28;20471;-34
2023/06/23 03:06:51;;;;;;;27.10;14.77;;;16.80;99.90;;;;;;5014816;28;20040;-34
2023/06/23 03:09:17;;;;;;;30.63;15.27;;;16.80;99.90;;;;;;5014618;28;20034;-35
2023/06/23 03:11:43;;;;;;;26.63;15.63;;;16.80;99.90;;;;;;5014781;28;20053;-35
2023/06/23 03:14:09;;;;;;;29.42;15.32;;;16.80;99.90;;;;;;5014669;28;20046;-30
2023/06/23 03:16:38;;;;;;;35.53;16.75;;;16.80;99.90;;;;;;5014857;28;20025;-34
2023/06/23 03:19:12;;;;;;;30.95;16.77;;;16.80;99.90;;;;;;5014802;28;20022;-37
2023/06/23 03:21:39;;;;;;;34.17;17.25;;;16.70;99.90;;;;;;5015096;28;20037;-34
2023/06/23 03:24:08;;;;;;;28.93;15.57;;;16.70;99.90;;;;;;5014408;28;20033;-31
2023/06/23 03:26:38;;;;;;;33.10;17.42;;;16.70;99.90;;;;;;5014605;28;20029;-34
2023/06/23 03:29:08;;;;;;;37.42;17.63;;;16.70;99.90;;;;;;5014614;28;20113;-34
2023/06/23 03:31:39;;;;;;;36.70;18.50;;;16.70;99.90;;;;;;5014624;28;20023;-34
2023/06/23 03:34:05;;;;;;;40.13;18.73;;;16.70;99.90;;;;;;5014451;28;20018;-34
2023/06/23 03:36:32;;;;;;;42.08;18.17;;;16.70;99.90;;;;;;5014445;28;20101;-35
2023/06/23 03:39:24;;;;;;;34.65;17.73;;;16.70;99.90;;;;;;5014423;28;20033;-33
2023/06/23 03:41:50;;;;;;;40.35;18.20;;;16.70;99.90;;;;;;5014096;28;20029;-35
2023/06/23 03:44:25;;;;;;;42.25;20.00;;;16.80;99.90;;;;;;5014324;28;20379;-32
2023/06/23 03:46:52;;;;;;;37.25;19.17;;;16.80;99.90;;;;;;5014114;28;20026;-37
2023/06/23 03:49:22;;;;;;;41.67;19.90;;;16.80;99.90;;;;;;5014233;28;20045;-31
2023/06/23 03:51:52;;;;;;;41.10;19.80;;;16.80;99.90;;;;;;5014198;28;20097;-36
2023/06/23 03:54:19;;;;;;;42.53;19.50;;;16.90;99.90;;;;;;5014110;28;20049;-32
2023/06/23 03:56:49;;;;;;;33.17;18.35;;;16.90;99.90;;;;;;5014115;28;20030;-36
2023/06/23 03:59:16;;;;;;;34.53;17.95;;;17.00;99.90;;;;;;5013981;28;20056;-38
2023/06/23 04:01:43;;;;;;;38.00;18.80;;;17.00;99.90;;;;;;5013988;28;20064;-32
2023/06/23 04:04:10;;;;;;;32.80;17.38;;;17.00;99.90;;;;;;5014008;28;20072;-36
2023/06/23 04:06:39;;;;;;;37.77;18.20;;;17.00;99.90;;;;;;5013895;28;20034;-33
2023/06/23 04:09:06;;;;;;;41.28;19.13;;;17.00;99.90;;;;;;5013852;28;20287;-33
2023/06/23 04:11:32;;;;;;;43.38;19.13;;;17.10;99.90;;;;;;5013662;28;20601;-33
2023/06/23 04:13:59;;;;;;;35.72;17.60;;;17.00;99.90;;;;;;5013584;28;20049;-39
2023/06/23 04:16:26;;;;;;;42.47;18.23;;;17.10;99.90;;;;;;5013757;28;20040;-32
2023/06/23 04:18:53;;;;;;;47.00;18.45;;;17.10;99.90;;;;;;5013192;28;20026;-38
2023/06/23 04:21:21;;;;;;;40.20;18.00;;;17.10;99.90;;;;;;5013381;28;20025;-34
2023/06/23 04:23:47;;;;;;;40.05;18.92;;;17.10;99.90;;;;;;5012231;28;20026;-37
2023/06/23 04:26:14;;;;;;;39.80;18.92;;;17.10;99.90;;;;;;5013534;28;20109;-33
2023/06/23 04:28:43;;;;;;;38.03;18.73;;;17.00;99.90;;;;;;5013493;28;20057;-42
2023/06/23 04:31:10;;;;;;;47.55;19.50;;;17.10;99.90;;;;;;5013448;28;20494;-41
2023/06/23 04:33:36;;;;;;;42.27;18.80;;;17.00;99.90;;;;;;5013411;28;20041;-31
2023/06/23 04:36:12;;;;;;;44.33;18.45;;;17.10;99.90;;;;;;5013623;28;20662;-35
2023/06/23 04:38:44;;;;;;;41.50;18.75;;;17.10;99.90;;;;;;5013388;28;20049;-32
2023/06/23 04:41:16;;;;;;;37.75;18.13;;;17.10;99.90;;;;;;5013302;28;20030;-34
2023/06/23 04:43:45;;;;;;;48.05;19.80;;;17.10;99.90;;;;;;5013401;28;20072;-31
2023/06/23 04:46:22;;;;;;;40.83;18.63;;;17.20;99.90;;;;;;5013463;28;20105;-32
2023/06/23 04:48:58;;;;;;;44.43;18.97;;;17.10;99.90;;;;;;5028195;28;20029;-40
2023/06/23 04:51:29;;;;;;;42.55;19.27;;;17.20;99.90;;;;;;5013512;28;20294;-35
2023/06/23 04:54:01;;;;;;;49.13;21.52;;;17.20;99.90;;;;;;5013171;28;20029;-37
2023/06/23 04:56:33;;;;;;;37.38;17.75;;;17.20;99.90;;;;;;5013208;28;20442;-37
2023/06/23 04:59:02;;;;;;;44.85;20.10;;;17.10;99.90;;;;;;5013127;28;20556;-34
2023/06/23 05:01:30;;;;;;;45.90;19.98;;;17.10;99.90;;;;;;5013076;28;20058;-35
2023/06/23 05:04:00;;;;;;;43.42;19.65;;;17.10;99.90;;;;;;5013050;28;20502;-38
2023/06/23 05:06:27;;;;;;;41.08;17.98;;;17.10;99.90;;;;;;5012908;28;20053;-35
2023/06/23 05:08:55;;;;;;;42.88;19.13;;;17.20;99.90;;;;;;5012918;28;20018;-33
2023/06/23 05:11:21;;;;;;;38.30;17.55;;;17.30;99.90;;;;;;5013227;28;20018;-32
2023/06/23 05:13:48;;;;;;;51.53;20.23;;;17.40;99.90;;;;;;5012722;28;20076;-33
2023/06/23 05:16:16;;;;;;;35.50;17.60;;;17.40;99.90;;;;;;5011782;28;20554;-33
2023/06/23 05:18:43;;;;;;;;;;;17.50;99.90;;;;;;5028724;28;20478;-35
2023/06/23 05:21:10;;;;;;;43.60;18.63;;;17.60;99.90;;;;;;5012854;28;19978;-31
2023/06/23 05:23:41;;;;;;;39.97;17.65;;;17.60;99.90;;;;;;5012839;28;20054;-31
2023/06/23 05:26:08;;;;;;;35.47;17.13;;;17.70;99.90;;;;;;5013079;28;20022;-35
2023/06/23 05:28:36;;;;;;;;;;;17.90;99.90;;;;;;5013281;28;20031;-38
2023/06/23 05:31:03;;;;;;;32.30;16.33;;;18.00;99.90;;;;;;5014264;28;19909;-31
2023/06/23 05:33:33;;;;;;;27.63;14.52;;;18.00;99.90;;;;;;5016630;28;20029;-35
2023/06/23 05:36:01;;;;;;;35.25;17.20;;;18.10;99.90;;;;;;5016724;28;20752;-34
2023/06/23 05:38:29;;;;;;;30.00;15.13;;;18.20;99.90;;;;;;5016714;28;20030;-32
2023/06/23 05:40:54;;;;;;;32.45;16.63;;;18.20;99.90;;;;;;5016571;28;20030;-32
2023/06/23 05:43:20;;;;;;;36.58;16.73;;;18.20;99.90;;;;;;5016394;28;20084;-49
2023/06/23 05:45:46;;;;;;;35.63;15.75;;;18.20;99.90;;;;;;5016546;28;20434;-38
2023/06/23 05:48:36;;;;;;;32.20;15.80;;;18.20;99.90;;;;;;5016780;28;20393;-40
2023/06/23 05:51:07;;;;;;;36.67;16.75;;;18.30;99.90;;;;;;5016424;28;20140;-38
2023/06/23 05:53:34;;;;;;;30.33;16.55;;;18.30;99.90;;;;;;5016490;28;20072;-39
2023/06/23 05:56:15;;;;;;;36.88;16.98;;;18.40;99.90;;;;;;5016375;28;20065;-40
2023/06/23 05:58:47;;;;;;;32.63;16.50;;;18.50;99.90;;;;;;5016343;28;20028;-41
2023/06/23 06:01:20;;;;;;;30.30;16.17;;;18.50;99.90;;;;;;5016220;28;20030;-40
2023/06/23 06:03:56;;;;;;;33.47;16.38;;;18.50;99.90;;;;;;5016285;28;20478;-41
2023/06/23 06:06:23;;;;;;;36.97;17.02;;;18.60;99.90;;;;;;5016104;28;20148;-39
2023/06/23 06:08:51;;;;;;;32.50;15.73;;;18.60;99.90;;;;;;5016108;28;20514;-38
2023/06/23 06:11:17;;;;;;;32.13;16.35;;;18.60;99.90;;;;;;5016045;28;20534;-44
2023/06/23 06:13:47;;;;;;;28.95;14.52;;;18.70;99.90;;;;;;5014460;28;20038;-39
2023/06/23 06:16:14;;;;;;;26.90;14.90;;;19.20;99.90;;;;;;5014736;28;20486;-41
2023/06/23 06:18:41;;;;;;;26.25;13.52;;;19.90;99.90;;;;;;5015879;28;20087;-41
2023/06/23 06:21:08;;;;;;;26.92;13.60;;;20.40;99.90;;;;;;5015849;28;20029;-39
2023/06/23 06:23:35;;;;;;;27.90;13.68;;;20.40;99.90;;;;;;5015754;28;20065;-43
2023/06/23 06:26:02;;;;;;;24.80;12.82;;;20.60;99.90;;;;;;5015803;28;20645;-39
2023/06/23 06:28:29;;;;;;;25.98;13.18;;;20.60;99.90;;;;;;5015796;28;20103;-40
2023/06/23 06:30:57;;;;;;;;;;;20.90;99.90;;;;;;5016163;28;20518;-42
2023/06/23 06:33:24;;;;;;;23.67;11.93;;;21.40;99.90;;;;;;5015660;28;19941;-39
2023/06/23 06:35:51;;;;;;;;;;;22.10;99.90;;;;;;5016025;28;20025;-39
2023/06/23 06:38:19;;;;;;;18.33;11.05;;;22.00;99.90;;;;;;5015615;28;19909;-40
2023/06/23 06:40:50;;;;;;;18.00;11.40;;;21.80;99.90;;;;;;5015688;28;20030;-50
2023/06/23 06:43:16;;;;;;;21.00;11.63;;;21.80;99.90;;;;;;5014611;28;20041;-39
2023/06/23 06:45:42;;;;;;;18.55;11.90;;;21.40;99.90;;;;;;5015447;28;20038;-41
2023/06/23 06:48:09;;;;;;;18.42;10.02;;;21.60;99.90;;;;;;5015330;28;20057;-39
2023/06/23 06:50:35;;;;;;;22.20;9.93;;;21.90;99.90;;;;;;5015571;28;20413;-38
2023/06/23 06:53:02;;;;;;;17.02;10.27;;;22.00;99.90;;;;;;5015416;28;20073;-38
2023/06/23 06:55:29;;;;;;;12.82;9.15;;;21.80;99.90;;;;;;5015349;28;20076;-40
2023/06/23 06:57:55;;;;;;;15.98;10.23;;;21.60;99.90;;;;;;5015622;28;20029;-40
2023/06/23 07:00:23;;;;;;;21.52;10.73;;;21.50;99.90;;;;;;5015269;28;20511;-38
2023/06/23 07:02:48;;;;;;;15.95;9.98;;;21.50;99.90;;;;;;5015176;28;20030;-39
2023/06/23 07:05:16;;;;;;;23.63;11.57;;;21.50;99.90;;;;;;5015367;28;20100;-40
2023/06/23 07:07:42;;;;;;;17.48;9.85;;;21.50;99.90;;;;;;5015341;28;20109;-39
2023/06/23 07:10:08;;;;;;;15.52;9.13;;;21.80;99.90;;;;;;5015008;28;20105;-40
2023/06/23 07:12:34;;;;;;;13.30;8.35;;;22.70;99.90;;;;;;5014994;28;20045;-40
2023/06/23 07:14:59;;;;;;;13.93;8.55;;;23.60;99.90;;;;;;5013486;28;20042;-40
2023/06/23 07:17:26;;;;;;;12.38;8.23;;;24.40;99.90;;;;;;5014826;28;20026;-40
2023/06/23 07:19:52;;;;;;;15.67;9.23;;;25.20;99.90;;;;;;5014725;28;20486;-40
2023/06/23 07:22:18;;;;;;;13.27;7.90;;;25.70;99.90;;;;;;5014609;28;20105;-43
2023/06/23 07:24:43;;;;;;;17.58;9.20;;;25.10;99.90;;;;;;5013296;28;20030;-58
2023/06/23 07:27:09;;;;;;;16.45;8.60;;;24.50;99.90;;;;;;5014615;28;20104;-75
2023/06/23 07:29:35;;;;;;;13.95;7.72;;;24.40;99.90;;;;;;5013312;28;20041;-39
2023/06/23 07:32:01;;;;;;;12.98;8.27;;;24.10;99.90;;;;;;5014436;28;20131;-39
2023/06/23 07:34:28;;;;;;;14.30;8.80;;;24.30;99.90;;;;;;5014253;28;20061;-39
2023/06/23 07:36:54;;;;;;;19.42;10.05;;;24.30;99.90;;;;;;5014722;28;20097;-40
2023/06/23 07:39:20;;;;;;;17.95;8.60;;;24.40;99.90;;;;;;5014773;28;20554;-39
2023/06/23 07:41:46;;;;;;;17.73;8.70;;;24.80;99.90;;;;;;5014485;28;20050;-41
2023/06/23 07:44:11;;;;;;;14.38;8.35;;;24.80;99.90;;;;;;5012963;28;20084;-42
2023/06/23 07:46:37;;;;;;;16.27;8.68;;;24.60;99.90;;;;;;5014198;28;20478;-41
2023/06/23 07:49:03;;;;;;;11.48;7.68;;;24.30;99.90;;;;;;5014263;28;20109;-39
2023/06/23 07:51:28;;;;;;;11.65;6.72;;;24.20;99.90;;;;;;5014113;28;20025;-40
2023/06/23 07:53:55;;;;;;;10.38;6.60;;;23.90;99.90;;;;;;5029335;28;20026;-39
2023/06/23 07:56:20;;;;;;;8.32;5.63;;;23.40;99.90;;;;;;5014066;28;20509;-37
2023/06/23 07:58:46;;;;;;;9.65;6.60;;;23.20;99.90;;;;;;5013909;28;20022;-33
2023/06/23 08:01:15;;;;;;;12.10;6.70;;;23.30;99.90;;;;;;5013928;28;20030;-33
2023/06/23 08:03:47;;;;;;;12.18;6.72;;;23.30;99.90;;;;;;5013669;28;20030;-41
2023/06/23 08:06:13;;;;;;;11.75;6.25;;;23.30;99.90;;;;;;5013833;28;20363;-42
2023/06/23 08:08:40;;;;;;;11.43;5.78;;;23.30;99.90;;;;;;5013867;28;20050;-54
2023/06/23 08:11:06;;;;;;;14.80;6.18;;;23.60;99.90;;;;;;5013872;28;20018;-41
2023/06/23 08:13:31;;;;;;;7.40;4.80;;;23.60;99.90;;;;;;5013786;28;20394;-40
2023/06/23 08:15:57;;;;;;;10.60;6.25;;;24.00;99.90;;;;;;5013956;28;20034;-41
2023/06/23 08:18:22;;;;;;;6.63;4.13;;;24.00;99.90;;;;;;5013820;28;20026;-40
2023/06/23 08:20:49;;;;;;;6.75;3.90;;;24.00;99.90;;;;;;5013735;28;20041;-40
2023/06/23 08:23:15;;;;;;;7.47;4.28;;;24.40;99.90;;;;;;5013842;28;20475;-41
2023/06/23 08:25:41;;;;;;;8.50;4.63;;;24.60;99.90;;;;;;5013319;28;20033;-41
2023/06/23 08:28:06;;;;;;;6.85;4.18;;;24.40;99.90;;;;;;5013877;28;20097;-40
2023/06/23 08:30:33;;;;;;;7.18;5.47;;;24.30;99.90;;;;;;5013611;28;20018;-42
2023/06/23 08:32:59;;;;;;;6.40;3.58;;;24.60;99.90;;;;;;5013528;28;20026;-41
2023/06/23 08:35:24;;;;;;;5.25;4.05;;;24.20;99.90;;;;;;5013746;28;20423;-41
2023/06/23 08:37:50;;;;;;;4.63;3.38;;;24.30;99.90;;;;;;5028658;28;20022;-40
2023/06/23 08:40:16;;;;;;;8.27;4.32;;;24.60;99.90;;;;;;5013168;28;20375;-41
2023/06/23 08:42:42;;;;;;;8.55;4.60;;;24.60;99.90;;;;;;5013378;28;20069;-40
2023/06/23 08:45:10;;;;;;;9.98;4.57;;;24.70;99.90;;;;;;5012313;28;20029;-41
2023/06/23 08:47:43;;;;;;;6.70;3.85;;;24.40;99.90;;;;;;5013276;28;20026;-39
2023/06/23 08:50:09;;;;;;;3.22;2.92;;;24.30;99.90;;;;;;5013489;28;20156;-40
2023/06/23 08:52:35;;;;;;;7.15;4.13;;;24.70;99.90;;;;;;5013135;28;20073;-39
2023/06/23 08:55:02;;;;;;;4.78;4.28;;;25.50;99.90;;;;;;5013316;28;20101;-40
2023/06/23 08:57:28;;;;;;;9.23;3.80;;;25.60;99.90;;;;;;5013096;28;20026;-40
2023/06/23 08:59:55;;;;;;;9.18;4.47;;;25.50;99.90;;;;;;5013070;28;20026;-39
2023/06/23 09:02:21;;;;;;;4.93;3.55;;;25.60;99.90;;;;;;5013216;28;20073;-38
2023/06/23 09:04:48;;;;;;;7.15;4.07;;;25.70;99.90;;;;;;5013272;28;20077;-42
2023/06/23 09:07:14;;;;;;;5.57;3.10;;;25.40;99.90;;;;;;5012732;28;20504;-41
2023/06/23 09:09:42;;;;;;;4.82;3.53;;;25.40;99.90;;;;;;5013091;28;20092;-40
2023/06/23 09:12:10;;;;;;;4.95;3.17;;;25.10;99.90;;;;;;5028485;28;20022;-40
2023/06/23 09:14:37;;;;;;;;;;;24.90;99.90;;;;;;5028397;28;20038;-43
2023/06/23 09:17:03;;;;;;;3.05;2.53;;;25.10;99.90;;;;;;5012827;28;20276;-40
2023/06/23 09:19:32;;;;;;;4.55;3.40;;;25.50;99.90;;;;;;5012838;28;20034;-40
2023/06/23 09:21:59;;;;;;;3.83;3.03;;;25.40;99.90;;;;;;5012600;28;20025;-40
2023/06/23 09:24:39;;;;;;;3.67;2.83;;;25.00;99.90;;;;;;5011520;28;20069;-39
2023/06/23 09:27:05;;;;;;;5.53;3.10;;;24.70;99.90;;;;;;5011522;28;20518;-40
2023/06/23 09:29:30;;;;;;;4.95;2.55;;;24.40;99.90;;;;;;5012984;28;20030;-39
2023/06/23 09:31:59;;;;;;;6.10;2.80;;;24.20;99.90;;;;;;5012775;28;20026;-39
2023/06/23 09:34:30;;;;;;;3.13;2.50;;;24.00;99.90;;;;;;5012702;28;20019;-38
2023/06/23 09:37:13;;;;;;;6.72;3.08;;;23.90;99.90;;;;;;5012791;28;20363;-38
2023/06/23 09:39:48;;;;;;;6.43;3.75;;;23.80;99.90;;;;;;5012733;28;20442;-38
2023/06/23 09:42:14;;;;;;;4.32;2.45;;;23.70;99.90;;;;;;5011443;28;20517;-38
2023/06/23 09:44:45;;;;;;;8.70;2.85;;;23.90;99.90;;;;;;5027830;28;20061;-49
2023/06/23 09:47:14;;;;;;;4.93;2.88;;;24.10;99.90;;;;;;5012879;28;20030;-44
2023/06/23 09:49:42;;;;;;;7.50;2.75;;;24.00;99.90;;;;;;5012606;28;20573;-39
2023/06/23 09:52:09;;;;;;;9.23;2.60;;;24.30;99.90;;;;;;5012641;28;20482;-41
2023/06/23 09:54:36;;;;;;;5.00;2.92;;;24.40;99.90;;;;;;5011204;28;20506;-40
2023/06/23 09:57:07;;;;;;;;;;;24.20;99.90;;;;;;5027480;28;20020;-39
2023/06/23 09:59:32;;;;;;;4.55;3.00;;;24.20;99.90;;;;;;5012486;28;19906;-39
2023/06/23 10:01:58;;;;;;;5.43;3.30;;;24.30;99.90;;;;;;5011714;28;20017;-39
2023/06/23 10:04:28;;;;;;;3.63;3.15;;;24.50;99.90;;;;;;5010377;28;20104;-39
2023/06/23 10:06:54;;;;;;;3.58;2.80;;;24.80;99.90;;;;;;5029449;28;20091;-39
2023/06/23 10:09:23;;;;;;;5.28;3.30;;;24.80;99.90;;;;;;5025409;28;20026;-41
2023/06/23 10:11:49;;;;;;;8.02;4.03;;;24.80;99.90;;;;;;5012177;28;20030;-38
2023/06/23 10:14:15;;;;;;;2.73;2.50;;;25.10;99.90;;;;;;5011769;28;20065;-41
2023/06/23 10:16:45;;;;;;;3.00;2.40;;;25.30;99.90;;;;;;5012374;28;20268;-41
2023/06/23 10:19:14;;;;;;;4.72;2.80;;;25.40;99.90;;;;;;5015325;28;20030;-39
2023/06/23 10:21:41;;;;;;;3.60;2.55;;;25.30;99.90;;;;;;5015908;28;20044;-43
2023/06/23 10:24:16;;;;;;;4.78;2.28;;;25.30;99.90;;;;;;5015794;28;20433;-40
2023/06/23 10:26:45;;;;;;;5.55;1.85;;;25.80;99.90;;;;;;5016102;28;20363;-40
2023/06/23 10:29:13;;;;;;;2.45;2.25;;;25.70;99.90;;;;;;5015746;28;20137;-41
2023/06/23 10:31:41;;;;;;;2.58;2.38;;;25.80;99.90;;;;;;5015469;28;20148;-39
2023/06/23 10:34:11;;;;;;;4.35;2.78;;;25.90;99.90;;;;;;5014670;28;20068;-40
2023/06/23 10:36:39;;;;;;;2.55;2.35;;;25.70;99.90;;;;;;5016146;28;20041;-39
2023/06/23 10:39:08;;;;;;;5.60;2.30;;;25.40;99.90;;;;;;5014142;28;20395;-41
2023/06/23 10:41:35;;;;;;;4.00;2.67;;;25.40;99.90;;;;;;5015102;28;20490;-59
2023/06/23 10:44:03;;;;;;;7.18;2.30;;;25.30;99.90;;;;;;5014912;28;20045;-42
2023/06/23 10:46:29;;;;;;;5.95;2.20;;;25.40;99.90;;;;;;5013383;28;20030;-46
2023/06/23 10:48:56;;;;;;;1.98;1.77;;;25.40;99.90;;;;;;5014466;28;20057;-38
2023/06/23 10:51:24;;;;;;;2.88;2.20;;;25.40;99.90;;;;;;5014108;28;20017;-41
2023/06/23 10:53:57;;;;;;;4.72;2.45;;;25.50;99.90;;;;;;5013635;28;20474;-39
2023/06/23 10:56:34;;;;;;;3.97;2.63;;;25.70;99.90;;;;;;5015561;28;20021;-39
2023/06/23 10:59:16;;;;;;;5.07;4.03;;;25.90;99.90;;;;;;5014307;28;20034;-39
2023/06/23 11:02:00;;;;;;;4.38;2.63;;;25.80;99.90;;;;;;5013837;28;20644;-53
2023/06/23 11:04:30;;;;;;;5.43;2.10;;;25.60;99.90;;;;;;5014401;28;20038;-39
2023/06/23 11:07:08;;;;;;;2.45;2.25;;;25.20;99.90;;;;;;5013068;28;20032;-39
2023/06/23 11:10:01;;;;;;;4.15;2.30;;;25.10;99.80;;;;;;5014798;28;20026;-39
2023/06/23 11:12:31;;;;;;;1.98;1.88;;;25.10;99.90;;;;;;5015153;28;20022;-39
2023/06/23 11:15:15;;;;;;;2.75;2.00;;;25.20;99.60;;;;;;5014860;28;20056;-39
2023/06/23 11:17:48;;;;;;;3.13;2.35;;;25.50;99.90;;;;;;5014705;28;20026;-39
2023/06/23 11:20:23;;;;;;;4.47;2.85;;;25.50;99.80;;;;;;5015021;28;20034;-39
2023/06/23 11:22:58;;;;;;;2.70;2.45;;;25.40;99.90;;;;;;5014654;28;20391;-39
2023/06/23 11:25:37;;;;;;;2.70;2.50;;;25.50;99.90;;;;;;5014643;28;20386;-40
2023/06/23 11:28:28;;;;;;;2.55;2.35;;;25.60;99.90;;;;;;5014273;28;20025;-39
2023/06/23 11:31:00;;;;;;;6.90;2.13;;;25.60;99.90;;;;;;5013022;28;20022;-39
2023/06/23 11:33:31;;;;;;;3.38;2.30;;;25.40;99.90;;;;;;5014406;28;20029;-39
2023/06/23 11:36:03;;;;;;;5.60;2.55;;;25.30;99.90;;;;;;5014635;28;20487;-44
2023/06/23 11:38:31;;;;;;;2.53;1.95;;;25.40;99.90;;;;;;5014441;28;20539;-64
2023/06/23 11:40:58;;;;;;;3.17;2.25;;;25.40;98.80;;;;;;5014359;28;20026;-39
2023/06/23 11:43:23;;;;;;;3.63;2.15;;;25.50;99.20;;;;;;5014489;28;20030;-39
2023/06/23 11:45:56;;;;;;;4.70;2.45;;;25.40;99.70;;;;;;5014189;28;20030;-38
2023/06/23 11:48:42;;;;;;;2.38;2.10;;;25.50;99.90;;;;;;5014617;28;20022;-39
2023/06/23 11:51:13;;;;;;;3.47;3.17;;;25.40;99.40;;;;;;5014199;28;20514;-38
2023/06/23 11:53:42;;;;;;;5.28;2.63;;;25.30;99.90;;;;;;5014475;28;20257;-39
2023/06/23 11:56:13;;;;;;;7.50;2.88;;;25.40;99.90;;;;;;5014131;28;20107;-39
2023/06/23 11:58:38;;;;;;;6.70;2.83;;;25.80;99.90;;;;;;5014196;28;20036;-39
2023/06/23 12:01:04;;;;;;;3.60;2.42;;;25.80;99.90;;;;;;5014064;28;20030;-39
2023/06/23 12:03:32;;;;;;;5.00;3.30;;;25.70;99.90;;;;;;5014143;28;20022;-40
2023/06/23 12:05:59;;;;;;;4.82;2.95;;;25.60;99.90;;;;;;5014246;28;20057;-38
2023/06/23 12:08:28;;;;;;;4.07;3.00;;;25.70;99.90;;;;;;5014073;28;20018;-31
2023/06/23 12:10:54;;;;;;;3.97;2.63;;;25.80;99.80;;;;;;5013885;28;20033;-33
2023/06/23 12:13:20;;;;;;;6.85;3.30;;;25.70;99.90;;;;;;5013768;28;20565;-35
2023/06/23 12:15:46;;;;;;;3.43;2.43;;;25.80;99.90;;;;;;5013591;28;20395;-31
2023/06/23 12:18:12;;;;;;;5.32;2.83;;;26.20;99.90;;;;;;5011256;28;20018;-33
2023/06/23 12:20:40;;;;;;;4.60;2.75;;;26.40;99.60;;;;;;5012853;28;20395;-32
2023/06/23 12:23:10;;;;;;;4.60;2.70;;;26.20;99.90;;;;;;5023799;28;20104;-34
2023/06/23 12:25:43;;;;;;;5.03;2.70;;;26.10;99.90;;;;;;5024460;28;20376;-31
2023/06/23 12:28:14;;;;;;;5.03;2.20;;;25.80;99.90;;;;;;5007973;28;20022;-34
2023/06/23 12:30:43;;;;;;;3.50;2.35;;;25.80;99.60;;;;;;5012429;28;20036;-38
2023/06/23 12:33:23;;;;;;;5.00;2.40;;;26.00;99.90;;;;;;5012506;28;20499;-60
2023/06/23 12:36:03;;;;;;;7.20;2.85;;;26.30;99.90;;;;;;5010997;28;20022;-36
2023/06/23 12:38:31;;;;;;;2.72;2.42;;;26.50;99.90;;;;;;5013309;28;20029;-39
2023/06/23 12:41:17;;;;;;;3.50;2.80;;;26.30;98.90;;;;;;5007872;28;20089;-42
2023/06/23 12:43:43;;;;;;;2.85;2.55;;;26.00;99.90;;;;;;5011443;28;20383;-38
2023/06/23 12:46:11;;;;;;;5.70;2.92;;;26.00;98.60;;;;;;5012477;28;20056;-37
2023/06/23 12:48:41;;;;;;;2.67;2.30;;;26.00;99.30;;;;;;5011009;28;20100;-47